createdAt,value
2023-05-21T00:02:05.592Z,30.55
2023-05-21T00:04:36.759Z,30.60
2023-05-21T00:07:08.066Z,30.63
2023-05-21T00:09:42.208Z,30.59
2023-05-21T00:12:13.048Z,30.73
2023-05-21T00:14:44.187Z,30.75
2023-05-21T00:17:14.874Z,30.77
2023-05-21T00:19:46.256Z,30.86
2023-05-21T00:22:17.391Z,30.85
2023-05-21T00:24:48.266Z,30.91
2023-05-21T00:27:19.175Z,30.91
2023-05-21T00:29:50.058Z,30.98
2023-05-21T00:32:20.982Z,30.97
2023-05-21T00:34:51.860Z,31.02
2023-05-21T00:37:23.252Z,31.12
2023-05-21T00:39:54.911Z,31.13
2023-05-21T00:42:28.826Z,31.23
2023-05-21T00:45:00.219Z,31.16
2023-05-21T00:47:31.158Z,31.27
2023-05-21T00:50:03.416Z,31.29
2023-05-21T00:52:34.704Z,31.32
2023-05-21T00:55:06.073Z,31.36
2023-05-21T00:57:38.699Z,31.43
2023-05-21T01:00:12.016Z,31.53
2023-05-21T01:02:43.592Z,31.45
2023-05-21T01:05:16.733Z,31.65
2023-05-21T01:07:48.141Z,31.70
2023-05-21T01:10:19.441Z,31.70
2023-05-21T01:12:50.630Z,31.79
2023-05-21T01:15:22.106Z,31.82
2023-05-21T01:17:53.893Z,31.41
2023-05-21T01:20:26.227Z,31.94
2023-05-21T01:22:57.999Z,31.91
2023-05-21T01:25:29.123Z,31.88
2023-05-21T01:27:59.780Z,31.99
2023-05-21T01:30:31.004Z,32.00
2023-05-21T01:33:06.522Z,32.03
2023-05-21T01:35:50.621Z,32.04
2023-05-21T01:38:28.562Z,32.08
2023-05-21T01:41:12.256Z,31.67
2023-05-21T01:43:45.855Z,32.15
2023-05-21T01:46:23.392Z,31.70
2023-05-21T01:48:56.990Z,32.17
2023-05-21T01:51:29.055Z,32.13
2023-05-21T01:53:59.891Z,32.17
2023-05-21T01:56:30.951Z,32.20
2023-05-21T01:59:02.295Z,32.26
2023-05-21T02:01:33.439Z,32.13
2023-05-21T02:04:04.322Z,32.30
2023-05-21T02:06:37.370Z,32.11
2023-05-21T02:09:08.072Z,32.36
2023-05-21T02:11:39.170Z,32.37
2023-05-21T02:14:11.880Z,32.40
2023-05-21T02:16:43.631Z,32.47
2023-05-21T02:19:14.656Z,32.46
2023-05-21T02:21:46.088Z,32.32
2023-05-21T02:24:16.924Z,32.49
2023-05-21T02:26:49.856Z,32.52
2023-05-21T02:29:20.784Z,32.51
2023-05-21T02:31:52.760Z,32.51
2023-05-21T02:34:24.068Z,32.55
2023-05-21T02:36:55.943Z,32.62
2023-05-21T02:39:28.475Z,32.64
2023-05-21T02:41:59.833Z,32.60
2023-05-21T02:44:31.012Z,32.78
2023-05-21T02:47:01.972Z,32.82
2023-05-21T02:49:32.877Z,32.85
2023-05-21T02:52:04.219Z,32.89
2023-05-21T02:54:35.100Z,32.92
2023-05-21T02:57:06.060Z,32.97
2023-05-21T02:59:36.993Z,32.99
2023-05-21T03:02:08.779Z,32.91
2023-05-21T03:04:47.502Z,32.82
2023-05-21T03:07:20.442Z,33.09
2023-05-21T03:09:51.335Z,33.13
2023-05-21T03:12:22.528Z,33.15
2023-05-21T03:14:53.414Z,33.15
2023-05-21T03:17:24.776Z,33.20
2023-05-21T03:19:56.113Z,33.17
2023-05-21T03:22:27.255Z,33.22
2023-05-21T03:24:59.780Z,33.23
2023-05-21T03:27:49.876Z,33.25
2023-05-21T03:30:43.527Z,33.27
2023-05-21T03:33:35.152Z,33.28
2023-05-21T03:36:17.655Z,33.31
2023-05-21T03:38:49.023Z,33.31
2023-05-21T03:41:20.152Z,33.28
2023-05-21T03:43:56.026Z,33.38
2023-05-21T03:46:31.583Z,33.38
2023-05-21T03:49:24.964Z,33.40
2023-05-21T03:51:58.160Z,33.40
2023-05-21T03:54:30.207Z,33.34
2023-05-21T03:57:06.326Z,33.43
2023-05-21T03:59:38.631Z,33.41
2023-05-21T04:02:09.610Z,33.24
2023-05-21T04:04:40.970Z,33.41
2023-05-21T04:07:15.976Z,33.40
2023-05-21T04:09:48.184Z,33.43
2023-05-21T04:12:20.599Z,33.11
2023-05-21T04:14:53.009Z,33.38
2023-05-21T04:17:23.912Z,33.43
2023-05-21T04:19:55.763Z,33.39
2023-05-21T04:22:28.034Z,33.37
2023-05-21T04:25:01.029Z,33.43
2023-05-21T04:27:39.926Z,33.42
2023-05-21T04:30:14.664Z,33.42
2023-05-21T04:32:49.663Z,33.43
2023-05-21T04:35:21.096Z,33.41
2023-05-21T04:37:52.208Z,33.40
2023-05-21T04:40:25.633Z,33.37
2023-05-21T04:42:58.454Z,33.36
2023-05-21T04:45:30.807Z,33.36
2023-05-21T04:48:04.285Z,33.37
2023-05-21T04:50:37.720Z,33.34
2023-05-21T04:53:08.862Z,33.35
2023-05-21T04:55:41.299Z,33.29
2023-05-21T04:58:14.899Z,33.32
2023-05-21T05:00:48.151Z,33.31
2023-05-21T05:03:19.602Z,33.27
2023-05-21T05:05:50.909Z,33.12
2023-05-21T05:08:21.875Z,33.24
2023-05-21T05:10:53.146Z,33.11
2023-05-21T05:13:24.184Z,33.21
2023-05-21T05:15:55.716Z,33.20
2023-05-21T05:18:26.555Z,33.19
2023-05-21T05:20:57.851Z,32.87
2023-05-21T05:23:29.177Z,33.13
2023-05-21T05:25:59.970Z,32.83
2023-05-21T05:28:31.380Z,32.85
2023-05-21T05:31:03.551Z,32.79
2023-05-21T05:33:35.945Z,32.62
2023-05-21T05:36:07.334Z,32.40
2023-05-21T05:38:43.469Z,32.21
2023-05-21T05:41:16.035Z,32.03
2023-05-21T05:43:48.184Z,31.90
2023-05-21T05:46:22.101Z,31.63
2023-05-21T05:48:55.984Z,31.64
2023-05-21T05:51:27.361Z,31.52
2023-05-21T05:53:59.688Z,31.46
2023-05-21T05:56:30.807Z,31.26
2023-05-21T05:59:02.043Z,31.27
2023-05-21T06:01:34.251Z,31.07
2023-05-21T06:04:05.340Z,31.10
2023-05-21T06:06:38.145Z,31.02
2023-05-21T06:09:09.057Z,30.96
2023-05-21T06:11:40.473Z,30.78
2023-05-21T06:14:11.431Z,30.79
2023-05-21T06:16:42.918Z,30.73
2023-05-21T06:19:14.037Z,30.66
2023-05-21T06:21:45.225Z,30.34
2023-05-21T06:24:16.262Z,30.54
2023-05-21T06:26:47.865Z,30.47
2023-05-21T06:29:18.960Z,30.49
2023-05-21T06:31:53.418Z,30.38
2023-05-21T06:34:24.585Z,30.38
2023-05-21T06:36:57.370Z,30.34
2023-05-21T06:39:28.731Z,30.28
2023-05-21T06:42:01.455Z,30.26
2023-05-21T06:44:56.119Z,30.01
2023-05-21T06:47:34.803Z,30.19
2023-05-21T06:50:11.387Z,30.13
2023-05-21T06:53:04.003Z,29.99
2023-05-21T06:55:35.729Z,30.10
2023-05-21T06:58:21.337Z,30.04
2023-05-21T07:00:52.930Z,30.05
2023-05-21T07:03:25.909Z,30.00
2023-05-21T07:05:57.070Z,29.99
2023-05-21T07:08:28.647Z,29.98
2023-05-21T07:10:59.934Z,29.75
2023-05-21T07:13:32.069Z,29.83
2023-05-21T07:16:03.090Z,29.91
2023-05-21T07:18:39.141Z,29.86
2023-05-21T07:21:10.200Z,29.97
2023-05-21T07:23:41.879Z,30.12
2023-05-21T07:26:14.167Z,30.32
2023-05-21T07:28:46.530Z,30.42
2023-05-21T07:31:17.676Z,30.61
2023-05-21T07:33:52.063Z,30.71
2023-05-21T07:36:28.057Z,30.78
2023-05-21T07:38:59.486Z,30.85
2023-05-21T07:41:32.830Z,30.89
2023-05-21T07:44:07.480Z,30.96
2023-05-21T07:46:45.073Z,30.96
2023-05-21T07:49:18.161Z,31.04
2023-05-21T07:51:52.215Z,31.07
2023-05-21T07:54:25.951Z,31.06
2023-05-21T07:56:58.606Z,31.14
2023-05-21T07:59:52.560Z,31.14
2023-05-21T08:02:24.679Z,31.09
2023-05-21T08:04:56.515Z,31.15
2023-05-21T08:07:29.109Z,31.20
2023-05-21T08:10:02.623Z,31.20
2023-05-21T08:12:36.243Z,31.16
2023-05-21T08:15:09.049Z,31.20
2023-05-21T08:17:45.649Z,31.25
2023-05-21T08:20:17.915Z,31.27
2023-05-21T08:22:49.776Z,31.24
2023-05-21T08:25:21.469Z,31.24
2023-05-21T08:27:54.507Z,31.16
2023-05-21T08:30:26.078Z,31.24
2023-05-21T08:32:57.311Z,31.27
2023-05-21T08:35:29.951Z,31.21
2023-05-21T08:38:07.718Z,31.24
2023-05-21T08:40:57.784Z,31.24
2023-05-21T08:43:33.207Z,31.31
2023-05-21T08:46:07.152Z,31.30
2023-05-21T08:48:41.300Z,31.27
2023-05-21T08:51:13.209Z,31.30
2023-05-21T08:53:52.951Z,31.32
2023-05-21T08:56:26.154Z,31.09
2023-05-21T08:59:01.310Z,30.89
2023-05-21T09:01:39.705Z,31.34
2023-05-21T09:04:30.137Z,31.30
2023-05-21T09:07:04.198Z,31.33
2023-05-21T09:10:10.348Z,31.32
2023-05-21T09:12:42.173Z,31.24
2023-05-21T09:15:13.953Z,31.33
2023-05-21T09:17:50.186Z,31.35
2023-05-21T09:20:39.371Z,31.33
2023-05-21T09:23:18.002Z,31.34
2023-05-21T09:25:51.129Z,31.36
2023-05-21T09:28:41.079Z,31.35
2023-05-21T09:31:12.164Z,31.37
2023-05-21T09:33:53.004Z,31.31
2023-05-21T09:36:25.219Z,31.37
2023-05-21T09:38:59.220Z,31.36
2023-05-21T09:41:39.635Z,31.34
2023-05-21T09:44:12.884Z,31.37
2023-05-21T09:46:44.026Z,31.36
2023-05-21T09:49:26.294Z,31.30
2023-05-21T09:51:59.313Z,31.36
2023-05-21T09:54:35.276Z,31.38
2023-05-21T09:57:06.521Z,31.28
2023-05-21T09:59:43.817Z,31.33
2023-05-21T10:02:23.103Z,31.41
2023-05-21T10:04:58.395Z,31.37
2023-05-21T10:07:29.761Z,31.36
2023-05-21T10:10:05.324Z,31.23
2023-05-21T10:12:37.113Z,31.32
2023-05-21T10:15:13.351Z,30.88
2023-05-21T10:17:47.446Z,31.44
2023-05-21T10:20:18.901Z,31.37
2023-05-21T10:22:52.159Z,31.48
2023-05-21T10:25:23.900Z,31.52
2023-05-21T10:27:57.653Z,31.52
2023-05-21T10:30:29.074Z,31.56
2023-05-21T10:33:01.835Z,31.60
2023-05-21T10:35:34.099Z,31.61
2023-05-21T10:38:06.791Z,31.08
2023-05-21T10:40:38.496Z,31.59
2023-05-21T10:43:40.861Z,31.54
2023-05-21T10:46:33.698Z,31.33
2023-05-21T10:49:34.626Z,31.36
2023-05-21T10:52:34.532Z,31.05
2023-05-21T10:55:22.027Z,31.27
2023-05-21T10:57:56.470Z,31.30
2023-05-21T11:00:28.989Z,30.76
2023-05-21T11:03:03.248Z,30.69
2023-05-21T11:06:07.883Z,30.69
2023-05-21T11:08:40.248Z,31.19
2023-05-21T11:11:10.777Z,31.02
2023-05-21T11:13:51.151Z,31.06
2023-05-21T11:16:27.326Z,31.10
2023-05-21T11:19:02.072Z,31.11
2023-05-21T11:21:35.625Z,31.09
2023-05-21T11:24:09.829Z,30.45
2023-05-21T11:26:50.148Z,31.04
2023-05-21T11:29:22.420Z,31.03
2023-05-21T11:32:07.156Z,30.49
2023-05-21T11:34:47.317Z,31.02
2023-05-21T11:37:30.818Z,31.01
2023-05-21T11:40:29.659Z,30.76
2023-05-21T11:43:00.606Z,30.93
2023-05-21T11:45:34.369Z,29.98
2023-05-21T11:48:06.839Z,30.99
2023-05-21T11:50:39.046Z,30.94
2023-05-21T11:53:10.614Z,30.83
2023-05-21T11:55:49.078Z,30.88
2023-05-21T11:58:21.257Z,30.33
2023-05-21T12:00:53.515Z,30.47
2023-05-21T12:03:28.108Z,30.76
2023-05-21T12:06:08.082Z,30.85
2023-05-21T12:08:39.825Z,30.87
2023-05-21T12:11:10.603Z,30.79
2023-05-21T12:13:41.543Z,30.90
2023-05-21T12:16:13.952Z,31.04
2023-05-21T12:18:44.976Z,31.03
2023-05-21T12:21:17.024Z,31.06
2023-05-21T12:23:48.084Z,31.10
2023-05-21T12:26:19.496Z,31.13
2023-05-21T12:28:51.416Z,30.83
2023-05-21T12:31:28.796Z,31.24
2023-05-21T12:33:59.800Z,31.28
2023-05-21T12:36:33.333Z,31.32
2023-05-21T12:39:04.278Z,31.34
2023-05-21T12:41:35.434Z,31.37
2023-05-21T12:44:07.236Z,31.14
2023-05-21T12:46:38.780Z,31.42
2023-05-21T12:49:10.300Z,31.25
2023-05-21T12:51:42.050Z,31.19
2023-05-21T12:54:15.960Z,31.34
2023-05-21T12:56:48.465Z,31.45
2023-05-21T12:59:18.954Z,31.22
2023-05-21T13:01:50.601Z,31.41
2023-05-21T13:04:22.820Z,31.43
2023-05-21T13:06:57.621Z,31.43
2023-05-21T13:09:28.650Z,31.37
2023-05-21T13:11:59.860Z,31.38
2023-05-21T13:14:30.974Z,31.43
2023-05-21T13:17:02.643Z,31.46
2023-05-21T13:19:34.127Z,31.14
2023-05-21T13:22:05.877Z,31.16
2023-05-21T13:24:36.838Z,30.96
2023-05-21T13:27:08.538Z,30.92
2023-05-21T13:29:39.624Z,30.80
2023-05-21T13:32:14.014Z,30.70
2023-05-21T13:34:45.338Z,30.61
2023-05-21T13:37:17.046Z,30.39
2023-05-21T13:39:48.731Z,30.39
2023-05-21T13:42:21.229Z,30.34
2023-05-21T13:44:57.192Z,30.13
2023-05-21T13:47:28.782Z,30.21
2023-05-21T13:49:59.834Z,30.14
2023-05-21T13:52:33.097Z,30.09
2023-05-21T13:55:04.459Z,29.83
2023-05-21T13:57:36.538Z,30.04
2023-05-21T14:00:10.808Z,29.92
2023-05-21T14:02:45.175Z,29.00
2023-05-21T14:05:16.710Z,29.90
2023-05-21T14:07:49.687Z,29.87
2023-05-21T14:10:21.916Z,29.88
2023-05-21T14:12:55.881Z,29.87
2023-05-21T14:15:30.666Z,29.76
2023-05-21T14:18:02.467Z,29.80
2023-05-21T14:20:33.762Z,29.78
2023-05-21T14:23:06.977Z,29.79
2023-05-21T14:25:39.633Z,29.77
2023-05-21T14:28:11.145Z,29.70
2023-05-21T14:30:42.266Z,29.78
2023-05-21T14:33:14.632Z,29.76
2023-05-21T14:35:45.664Z,29.54
2023-05-21T14:38:18.416Z,29.65
2023-05-21T14:40:49.590Z,29.71
2023-05-21T14:43:21.134Z,29.61
2023-05-21T14:45:52.987Z,29.60
2023-05-21T14:48:26.742Z,29.56
2023-05-21T14:50:59.018Z,29.46
2023-05-21T14:53:30.230Z,29.54
2023-05-21T14:56:02.604Z,29.47
2023-05-21T14:58:34.144Z,29.48
2023-05-21T15:01:08.345Z,29.31
2023-05-21T15:03:43.920Z,28.93
2023-05-21T15:06:15.251Z,29.26
2023-05-21T15:08:49.807Z,29.22
2023-05-21T15:11:22.942Z,29.23
2023-05-21T15:13:57.763Z,29.24
2023-05-21T15:16:30.122Z,29.05
2023-05-21T15:19:01.629Z,29.07
2023-05-21T15:21:34.182Z,29.13
2023-05-21T15:24:07.245Z,29.11
2023-05-21T15:26:38.509Z,29.10
2023-05-21T15:29:09.901Z,29.00
2023-05-21T15:31:43.916Z,29.03
2023-05-21T15:34:19.313Z,29.11
2023-05-21T15:36:56.682Z,29.07
2023-05-21T15:39:29.008Z,29.08
2023-05-21T15:42:02.106Z,29.04
2023-05-21T15:44:34.750Z,29.04
2023-05-21T15:47:08.427Z,29.03
2023-05-21T15:49:39.830Z,29.03
2023-05-21T15:52:11.005Z,29.00
2023-05-21T15:54:43.734Z,29.04
2023-05-21T15:57:16.007Z,28.92
2023-05-21T15:59:48.116Z,29.04
2023-05-21T16:02:19.233Z,29.02
2023-05-21T16:04:53.202Z,28.95
2023-05-21T16:07:26.059Z,28.94
2023-05-21T16:09:57.491Z,28.79
2023-05-21T16:12:28.885Z,28.89
2023-05-21T16:15:00.560Z,28.85
2023-05-21T16:17:32.342Z,28.80
2023-05-21T16:20:03.762Z,28.76
2023-05-21T16:22:35.036Z,28.78
2023-05-21T16:25:07.238Z,28.75
2023-05-21T16:27:39.435Z,28.70
2023-05-21T16:30:12.264Z,28.74
2023-05-21T16:32:47.384Z,28.66
2023-05-21T16:35:18.660Z,28.66
2023-05-21T16:37:54.457Z,28.12
2023-05-21T16:40:26.344Z,28.62
2023-05-21T16:42:57.527Z,28.60
2023-05-21T16:45:29.514Z,28.47
2023-05-21T16:48:03.535Z,28.54
2023-05-21T16:50:35.393Z,28.52
2023-05-21T16:53:09.114Z,28.44
2023-05-21T16:55:40.773Z,28.55
2023-05-21T16:58:14.946Z,28.58
2023-05-21T17:00:46.610Z,28.40
2023-05-21T17:03:17.835Z,28.47
2023-05-21T17:05:49.394Z,28.46
2023-05-21T17:08:21.497Z,28.46
2023-05-21T17:10:52.973Z,28.44
2023-05-21T17:13:24.087Z,28.35
2023-05-21T17:15:55.415Z,28.40
2023-05-21T17:18:26.351Z,28.41
2023-05-21T17:21:00.178Z,28.29
2023-05-21T17:23:31.059Z,27.93
2023-05-21T17:26:02.977Z,28.33
2023-05-21T17:28:33.939Z,28.22
2023-05-21T17:31:05.894Z,28.34
2023-05-21T17:33:37.396Z,28.33
2023-05-21T17:36:08.779Z,28.16
2023-05-21T17:38:39.803Z,28.24
2023-05-21T17:41:11.244Z,28.33
2023-05-21T17:43:42.279Z,28.29
2023-05-21T17:46:18.018Z,28.27
2023-05-21T17:48:49.188Z,28.30
2023-05-21T17:51:20.272Z,28.30
2023-05-21T17:53:51.560Z,28.29
2023-05-21T17:56:22.983Z,28.16
2023-05-21T17:58:53.864Z,28.29
2023-05-21T18:01:25.350Z,28.25
2023-05-21T18:03:56.354Z,28.28
2023-05-21T18:06:27.628Z,28.11
2023-05-21T18:08:59.197Z,28.26
2023-05-21T18:11:30.889Z,28.22
2023-05-21T18:14:02.109Z,28.23
2023-05-21T18:16:33.099Z,28.11
2023-05-21T18:19:07.069Z,28.05
2023-05-21T18:21:39.035Z,28.05
2023-05-21T18:24:11.134Z,28.06
2023-05-21T18:26:42.135Z,28.18
2023-05-21T18:29:14.450Z,28.09
2023-05-21T18:31:48.624Z,28.11
2023-05-21T18:34:19.334Z,28.12
2023-05-21T18:36:50.785Z,28.02
2023-05-21T18:39:25.882Z,27.79
2023-05-21T18:44:32.198Z,28.03
2023-05-21T18:47:03.702Z,27.92
2023-05-21T18:49:39.385Z,28.05
2023-05-21T18:52:10.469Z,28.03
2023-05-21T18:54:41.210Z,28.00
2023-05-21T18:57:12.301Z,28.03
2023-05-21T18:59:42.953Z,28.00
2023-05-21T19:02:14.335Z,27.97
2023-05-21T19:04:45.529Z,28.02
2023-05-21T19:07:17.280Z,28.01
2023-05-21T19:09:50.161Z,27.80
2023-05-21T19:12:21.168Z,27.96
2023-05-21T19:14:51.875Z,28.01
2023-05-21T19:17:22.961Z,27.97
2023-05-21T19:19:57.440Z,27.98
2023-05-21T19:22:29.566Z,28.00
2023-05-21T19:25:00.877Z,27.97
2023-05-21T19:27:31.813Z,27.97
2023-05-21T19:30:02.454Z,27.95
2023-05-21T19:32:33.384Z,27.92
2023-05-21T19:35:06.012Z,27.97
2023-05-21T19:37:37.560Z,27.96
2023-05-21T19:40:09.187Z,27.94
2023-05-21T19:42:40.168Z,27.93
2023-05-21T19:45:11.573Z,27.96
2023-05-21T19:47:42.552Z,27.88
2023-05-21T19:50:13.519Z,27.95
2023-05-21T19:52:44.488Z,27.59
2023-05-21T19:55:15.477Z,27.92
2023-05-21T19:57:46.470Z,27.76
2023-05-21T20:00:17.701Z,27.83
2023-05-21T20:02:49.414Z,27.93
2023-05-21T20:05:21.455Z,27.93
2023-05-21T20:07:52.505Z,27.91
2023-05-21T20:10:23.237Z,27.91
2023-05-21T20:12:54.313Z,27.92
2023-05-21T20:15:25.033Z,27.91
2023-05-21T20:17:57.282Z,27.88
2023-05-21T20:20:30.629Z,27.87
2023-05-21T20:23:04.764Z,27.79
2023-05-21T20:25:35.456Z,27.85
2023-05-21T20:28:06.936Z,27.87
2023-05-21T20:30:55.074Z,27.29
2023-05-21T20:33:26.864Z,27.87
2023-05-21T20:35:57.682Z,27.86
2023-05-21T20:38:29.293Z,27.88
2023-05-21T20:41:00.127Z,27.84
2023-05-21T20:43:31.232Z,27.82
2023-05-21T20:46:01.972Z,27.78
2023-05-21T20:48:36.742Z,27.76
2023-05-21T20:51:07.470Z,27.72
2023-05-21T20:53:38.659Z,27.74
2023-05-21T20:56:10.594Z,27.82
2023-05-21T20:58:41.846Z,27.66
2023-05-21T21:01:12.654Z,27.80
2023-05-21T21:03:47.001Z,27.74
2023-05-21T21:06:21.564Z,27.74
2023-05-21T21:08:52.428Z,27.72
2023-05-21T21:11:23.218Z,27.70
2023-05-21T21:13:54.278Z,27.73
2023-05-21T21:16:25.003Z,27.78
2023-05-21T21:18:55.925Z,27.80
2023-05-21T21:21:26.835Z,27.76
2023-05-21T21:23:57.667Z,27.77
2023-05-21T21:26:28.579Z,27.77
2023-05-21T21:29:00.776Z,27.64
2023-05-21T21:31:32.218Z,27.73
2023-05-21T21:34:03.386Z,27.60
2023-05-21T21:36:34.143Z,27.72
2023-05-21T21:39:05.170Z,27.70
2023-05-21T21:41:35.899Z,27.70
2023-05-21T21:44:06.943Z,27.69
2023-05-21T21:46:37.572Z,27.65
2023-05-21T21:49:08.522Z,27.61
2023-05-21T21:51:39.410Z,27.67
2023-05-21T21:54:10.310Z,27.66
2023-05-21T21:56:41.033Z,27.59
2023-05-21T21:59:11.901Z,27.56
2023-05-21T22:01:42.782Z,27.58
2023-05-21T22:04:14.271Z,27.56
2023-05-21T22:06:46.785Z,27.55
2023-05-21T22:09:18.877Z,27.48
2023-05-21T22:11:50.412Z,27.30
2023-05-21T22:14:21.351Z,27.45
2023-05-21T22:16:54.459Z,27.47
2023-05-21T22:19:25.545Z,27.44
2023-05-21T22:21:56.523Z,27.47
2023-05-21T22:24:32.695Z,27.47
2023-05-21T22:27:04.028Z,27.38
2023-05-21T22:29:34.940Z,27.36
2023-05-21T22:32:05.623Z,27.43
2023-05-21T22:34:36.388Z,27.44
2023-05-21T22:37:07.027Z,27.28
2023-05-21T22:39:37.934Z,27.36
2023-05-21T22:42:08.851Z,27.42
2023-05-21T22:44:39.843Z,27.40
2023-05-21T22:47:11.498Z,27.39
2023-05-21T22:49:42.619Z,27.34
2023-05-21T22:52:13.490Z,27.34
2023-05-21T22:54:44.283Z,27.40
2023-05-21T22:57:15.345Z,27.38
2023-05-21T22:59:46.765Z,27.39
2023-05-21T23:02:18.012Z,27.34
2023-05-21T23:04:50.647Z,27.48
2023-05-21T23:07:21.374Z,27.61
2023-05-21T23:09:53.095Z,27.76
2023-05-21T23:12:23.797Z,27.79
2023-05-21T23:14:54.853Z,27.98
2023-05-21T23:17:25.686Z,28.10
2023-05-21T23:19:57.490Z,28.18
2023-05-21T23:22:28.176Z,28.27
2023-05-21T23:24:59.102Z,28.32
2023-05-21T23:27:30.549Z,28.41
2023-05-21T23:30:01.885Z,28.45
2023-05-21T23:32:34.607Z,28.48
2023-05-21T23:35:05.893Z,28.59
2023-05-21T23:37:36.606Z,28.71
2023-05-21T23:40:08.240Z,28.73
2023-05-21T23:42:39.055Z,28.77
2023-05-21T23:45:10.247Z,28.88
2023-05-21T23:47:41.076Z,29.04
2023-05-21T23:50:12.356Z,29.07
2023-05-21T23:52:43.226Z,29.14
2023-05-21T23:55:15.969Z,29.31
2023-05-21T23:57:46.783Z,29.36
